sensor_id;sensor_type;location;lat;lon;timestamp;temperature;humidity
22065;DHT22;11197;53.110;8.468;2023-06-14T00:01:53;18.30;99.90
22065;DHT22;11197;53.110;8.468;2023-06-14T00:04:20;18.30;99.90
22065;DHT22;11197;53.110;8.468;2023-06-14T00:06:47;18.30;99.90
22065;DHT22;11197;53.110;8.468;2023-06-14T00:09:14;18.20;99.90
22065;DHT22;11197;53.110;8.468;2023-06-14T00:11:41;18.20;99.90
22065;DHT22;11197;53.110;8.468;2023-06-14T00:14:07;18.10;99.90
22065;DHT22;11197;53.110;8.468;2023-06-14T00:16:33;18.10;99.90
22065;DHT22;11197;53.110;8.468;2023-06-14T00:19:01;18.10;99.90
22065;DHT22;11197;53.110;8.468;2023-06-14T00:21:29;18.10;99.90
22065;DHT22;11197;53.110;8.468;2023-06-14T00:23:56;18.00;99.90
22065;DHT22;11197;53.110;8.468;2023-06-14T00:26:22;18.00;99.90
22065;DHT22;11197;53.110;8.468;2023-06-14T00:28:48;17.90;99.90
22065;DHT22;11197;53.110;8.468;2023-06-14T00:31:14;17.90;99.90
22065;DHT22;11197;53.110;8.468;2023-06-14T00:33:40;17.90;99.90
22065;DHT22;11197;53.110;8.468;2023-06-14T00:36:06;17.90;99.90
22065;DHT22;11197;53.110;8.468;2023-06-14T00:38:31;17.80;99.90
22065;DHT22;11197;53.110;8.468;2023-06-14T00:40:57;17.80;99.90
22065;DHT22;11197;53.110;8.468;2023-06-14T00:43:23;17.70;99.90
22065;DHT22;11197;53.110;8.468;2023-06-14T00:45:48;17.70;99.90
22065;DHT22;11197;53.110;8.468;2023-06-14T00:48:15;17.60;99.90
22065;DHT22;11197;53.110;8.468;2023-06-14T00:50:43;17.60;99.90
22065;DHT22;11197;53.110;8.468;2023-06-14T00:53:12;17.60;99.90
22065;DHT22;11197;53.110;8.468;2023-06-14T00:55:38;17.60;99.90
22065;DHT22;11197;53.110;8.468;2023-06-14T00:58:04;17.50;99.90
22065;DHT22;11197;53.110;8.468;2023-06-14T01:00:29;17.50;99.90
22065;DHT22;11197;53.110;8.468;2023-06-14T01:02:55;17.50;99.90
22065;DHT22;11197;53.110;8.468;2023-06-14T01:05:22;17.50;99.90
22065;DHT22;11197;53.110;8.468;2023-06-14T01:08:06;17.50;99.90
22065;DHT22;11197;53.110;8.468;2023-06-14T01:10:47;17.40;99.90
22065;DHT22;11197;53.110;8.468;2023-06-14T01:13:21;17.40;99.90
22065;DHT22;11197;53.110;8.468;2023-06-14T01:15:51;17.40;99.90
22065;DHT22;11197;53.110;8.468;2023-06-14T01:18:17;17.30;99.90
22065;DHT22;11197;53.110;8.468;2023-06-14T01:20:44;17.30;99.90
22065;DHT22;11197;53.110;8.468;2023-06-14T01:23:17;17.30;99.90
22065;DHT22;11197;53.110;8.468;2023-06-14T01:25:43;17.30;99.90
22065;DHT22;11197;53.110;8.468;2023-06-14T01:28:11;17.20;99.90
22065;DHT22;11197;53.110;8.468;2023-06-14T01:30:42;17.20;99.90
22065;DHT22;11197;53.110;8.468;2023-06-14T01:33:15;17.20;99.90
22065;DHT22;11197;53.110;8.468;2023-06-14T01:35:43;17.10;99.90
22065;DHT22;11197;53.110;8.468;2023-06-14T01:38:09;17.10;99.90
22065;DHT22;11197;53.110;8.468;2023-06-14T01:40:35;17.10;99.90
22065;DHT22;11197;53.110;8.468;2023-06-14T01:43:02;17.10;99.90
22065;DHT22;11197;53.110;8.468;2023-06-14T01:45:29;17.00;99.90
22065;DHT22;11197;53.110;8.468;2023-06-14T01:47:56;17.00;99.90
22065;DHT22;11197;53.110;8.468;2023-06-14T01:50:22;16.90;99.90
22065;DHT22;11197;53.110;8.468;2023-06-14T01:52:48;16.90;99.90
22065;DHT22;11197;53.110;8.468;2023-06-14T01:55:14;16.90;99.90
22065;DHT22;11197;53.110;8.468;2023-06-14T01:57:40;16.90;99.90
22065;DHT22;11197;53.110;8.468;2023-06-14T02:00:07;16.80;99.90
22065;DHT22;11197;53.110;8.468;2023-06-14T02:02:38;16.80;99.90
22065;DHT22;11197;53.110;8.468;2023-06-14T02:05:05;16.80;99.90
22065;DHT22;11197;53.110;8.468;2023-06-14T02:07:31;16.70;99.90
22065;DHT22;11197;53.110;8.468;2023-06-14T02:09:56;16.70;99.90
22065;DHT22;11197;53.110;8.468;2023-06-14T02:12:22;16.70;99.90
22065;DHT22;11197;53.110;8.468;2023-06-14T02:14:48;16.60;99.90
22065;DHT22;11197;53.110;8.468;2023-06-14T02:17:14;16.60;99.90
22065;DHT22;11197;53.110;8.468;2023-06-14T02:19:40;16.50;99.90
22065;DHT22;11197;53.110;8.468;2023-06-14T02:22:06;16.50;99.90
22065;DHT22;11197;53.110;8.468;2023-06-14T02:24:34;16.40;99.90
22065;DHT22;11197;53.110;8.468;2023-06-14T02:27:01;16.40;99.90
22065;DHT22;11197;53.110;8.468;2023-06-14T02:29:27;16.40;99.90
22065;DHT22;11197;53.110;8.468;2023-06-14T02:31:52;16.40;99.90
22065;DHT22;11197;53.110;8.468;2023-06-14T02:34:20;16.30;99.90
22065;DHT22;11197;53.110;8.468;2023-06-14T02:36:47;16.30;99.90
22065;DHT22;11197;53.110;8.468;2023-06-14T02:39:13;16.30;99.90
22065;DHT22;11197;53.110;8.468;2023-06-14T02:41:39;16.20;99.90
22065;DHT22;11197;53.110;8.468;2023-06-14T02:44:06;16.20;99.90
22065;DHT22;11197;53.110;8.468;2023-06-14T02:46:32;16.10;99.90
22065;DHT22;11197;53.110;8.468;2023-06-14T02:48:57;16.10;99.90
22065;DHT22;11197;53.110;8.468;2023-06-14T02:51:23;16.10;99.90
22065;DHT22;11197;53.110;8.468;2023-06-14T02:53:49;16.10;99.90
22065;DHT22;11197;53.110;8.468;2023-06-14T02:56:16;16.10;99.90
22065;DHT22;11197;53.110;8.468;2023-06-14T02:58:43;16.00;99.90
22065;DHT22;11197;53.110;8.468;2023-06-14T03:01:09;16.00;99.90
22065;DHT22;11197;53.110;8.468;2023-06-14T03:03:38;16.00;99.90
22065;DHT22;11197;53.110;8.468;2023-06-14T03:06:04;16.00;99.90
22065;DHT22;11197;53.110;8.468;2023-06-14T03:08:32;15.90;99.90
22065;DHT22;11197;53.110;8.468;2023-06-14T03:11:05;15.90;99.90
22065;DHT22;11197;53.110;8.468;2023-06-14T03:13:32;15.90;99.90
22065;DHT22;11197;53.110;8.468;2023-06-14T03:15:58;15.90;99.90
22065;DHT22;11197;53.110;8.468;2023-06-14T03:18:24;15.90;99.90
22065;DHT22;11197;53.110;8.468;2023-06-14T03:20:51;15.80;99.90
22065;DHT22;11197;53.110;8.468;2023-06-14T03:23:17;15.80;99.90
22065;DHT22;11197;53.110;8.468;2023-06-14T03:25:44;15.80;99.90
22065;DHT22;11197;53.110;8.468;2023-06-14T03:28:12;15.70;99.90
22065;DHT22;11197;53.110;8.468;2023-06-14T03:30:38;15.70;99.90
22065;DHT22;11197;53.110;8.468;2023-06-14T03:33:04;15.70;99.90
22065;DHT22;11197;53.110;8.468;2023-06-14T03:35:33;15.60;99.90
22065;DHT22;11197;53.110;8.468;2023-06-14T03:38:00;15.60;99.90
22065;DHT22;11197;53.110;8.468;2023-06-14T03:40:25;15.60;99.90
22065;DHT22;11197;53.110;8.468;2023-06-14T03:42:54;15.60;99.90
22065;DHT22;11197;53.110;8.468;2023-06-14T03:45:21;15.50;99.90
22065;DHT22;11197;53.110;8.468;2023-06-14T03:47:47;15.50;99.90
22065;DHT22;11197;53.110;8.468;2023-06-14T03:50:13;15.40;99.90
22065;DHT22;11197;53.110;8.468;2023-06-14T03:52:39;15.40;99.90
22065;DHT22;11197;53.110;8.468;2023-06-14T03:55:08;15.40;99.90
22065;DHT22;11197;53.110;8.468;2023-06-14T03:57:34;15.40;99.90
22065;DHT22;11197;53.110;8.468;2023-06-14T04:00:00;15.40;99.90
22065;DHT22;11197;53.110;8.468;2023-06-14T04:02:31;15.40;99.90
22065;DHT22;11197;53.110;8.468;2023-06-14T04:05:03;15.40;99.90
22065;DHT22;11197;53.110;8.468;2023-06-14T04:07:29;15.40;99.90
22065;DHT22;11197;53.110;8.468;2023-06-14T04:09:55;15.30;99.90
22065;DHT22;11197;53.110;8.468;2023-06-14T04:12:21;15.30;99.90
22065;DHT22;11197;53.110;8.468;2023-06-14T04:14:47;15.30;99.90
22065;DHT22;11197;53.110;8.468;2023-06-14T04:17:13;15.30;99.90
22065;DHT22;11197;53.110;8.468;2023-06-14T04:19:43;15.30;99.90
22065;DHT22;11197;53.110;8.468;2023-06-14T04:22:08;15.30;99.90
22065;DHT22;11197;53.110;8.468;2023-06-14T04:24:36;15.30;99.90
22065;DHT22;11197;53.110;8.468;2023-06-14T04:27:03;15.30;99.90
22065;DHT22;11197;53.110;8.468;2023-06-14T04:29:30;15.30;99.90
22065;DHT22;11197;53.110;8.468;2023-06-14T04:32:01;15.30;99.90
22065;DHT22;11197;53.110;8.468;2023-06-14T04:34:27;15.30;99.90
22065;DHT22;11197;53.110;8.468;2023-06-14T04:37:00;15.30;99.90
22065;DHT22;11197;53.110;8.468;2023-06-14T04:39:31;15.30;99.90
22065;DHT22;11197;53.110;8.468;2023-06-14T04:41:58;15.30;99.90
22065;DHT22;11197;53.110;8.468;2023-06-14T04:44:26;15.30;99.90
22065;DHT22;11197;53.110;8.468;2023-06-14T04:46:57;15.30;99.90
22065;DHT22;11197;53.110;8.468;2023-06-14T04:49:24;15.50;99.90
22065;DHT22;11197;53.110;8.468;2023-06-14T04:51:52;15.90;99.90
22065;DHT22;11197;53.110;8.468;2023-06-14T04:54:24;16.40;99.90
22065;DHT22;11197;53.110;8.468;2023-06-14T04:56:53;16.80;99.90
22065;DHT22;11197;53.110;8.468;2023-06-14T04:59:21;17.10;99.90
22065;DHT22;11197;53.110;8.468;2023-06-14T05:01:51;17.20;99.90
22065;DHT22;11197;53.110;8.468;2023-06-14T05:04:18;17.30;99.90
22065;DHT22;11197;53.110;8.468;2023-06-14T05:06:45;17.50;99.90
22065;DHT22;11197;53.110;8.468;2023-06-14T05:09:14;17.60;99.90
22065;DHT22;11197;53.110;8.468;2023-06-14T05:11:44;17.80;99.90
22065;DHT22;11197;53.110;8.468;2023-06-14T05:14:14;17.80;99.90
22065;DHT22;11197;53.110;8.468;2023-06-14T05:16:40;17.90;99.90
22065;DHT22;11197;53.110;8.468;2023-06-14T05:19:06;18.00;99.90
22065;DHT22;11197;53.110;8.468;2023-06-14T05:21:32;18.10;99.90
22065;DHT22;11197;53.110;8.468;2023-06-14T05:24:00;18.10;99.90
22065;DHT22;11197;53.110;8.468;2023-06-14T05:26:26;18.20;99.90
22065;DHT22;11197;53.110;8.468;2023-06-14T05:28:58;18.20;99.90
22065;DHT22;11197;53.110;8.468;2023-06-14T05:31:26;18.30;99.90
22065;DHT22;11197;53.110;8.468;2023-06-14T05:33:52;18.30;99.90
22065;DHT22;11197;53.110;8.468;2023-06-14T05:36:19;18.10;99.90
22065;DHT22;11197;53.110;8.468;2023-06-14T05:38:45;17.90;99.90
22065;DHT22;11197;53.110;8.468;2023-06-14T05:41:11;17.70;99.90
22065;DHT22;11197;53.110;8.468;2023-06-14T05:43:37;17.60;99.90
22065;DHT22;11197;53.110;8.468;2023-06-14T05:46:03;17.50;99.90
22065;DHT22;11197;53.110;8.468;2023-06-14T05:48:30;17.50;99.90
22065;DHT22;11197;53.110;8.468;2023-06-14T05:50:56;17.60;99.90
22065;DHT22;11197;53.110;8.468;2023-06-14T05:53:21;17.70;99.90
22065;DHT22;11197;53.110;8.468;2023-06-14T05:55:47;17.80;99.90
22065;DHT22;11197;53.110;8.468;2023-06-14T05:58:13;17.90;99.90
22065;DHT22;11197;53.110;8.468;2023-06-14T06:00:39;18.10;99.90
22065;DHT22;11197;53.110;8.468;2023-06-14T06:03:05;18.20;99.90
22065;DHT22;11197;53.110;8.468;2023-06-14T06:05:33;18.30;99.90
22065;DHT22;11197;53.110;8.468;2023-06-14T06:07:59;18.50;99.90
22065;DHT22;11197;53.110;8.468;2023-06-14T06:10:26;18.70;99.90
22065;DHT22;11197;53.110;8.468;2023-06-14T06:12:51;18.80;99.90
22065;DHT22;11197;53.110;8.468;2023-06-14T06:15:18;19.00;99.90
22065;DHT22;11197;53.110;8.468;2023-06-14T06:17:44;19.00;99.90
22065;DHT22;11197;53.110;8.468;2023-06-14T06:20:10;19.10;99.90
22065;DHT22;11197;53.110;8.468;2023-06-14T06:22:37;19.10;99.90
22065;DHT22;11197;53.110;8.468;2023-06-14T06:25:03;19.10;99.90
22065;DHT22;11197;53.110;8.468;2023-06-14T06:27:29;19.10;99.90
22065;DHT22;11197;53.110;8.468;2023-06-14T06:29:55;19.20;99.90
22065;DHT22;11197;53.110;8.468;2023-06-14T06:32:21;19.20;99.90
22065;DHT22;11197;53.110;8.468;2023-06-14T06:34:46;19.30;99.90
22065;DHT22;11197;53.110;8.468;2023-06-14T06:37:13;19.30;99.90
22065;DHT22;11197;53.110;8.468;2023-06-14T06:39:39;19.40;99.90
22065;DHT22;11197;53.110;8.468;2023-06-14T06:42:05;19.50;99.90
22065;DHT22;11197;53.110;8.468;2023-06-14T06:44:35;19.60;99.90
22065;DHT22;11197;53.110;8.468;2023-06-14T06:47:01;19.60;99.90
22065;DHT22;11197;53.110;8.468;2023-06-14T06:49:27;19.60;99.90
22065;DHT22;11197;53.110;8.468;2023-06-14T06:52:01;19.70;99.90
22065;DHT22;11197;53.110;8.468;2023-06-14T06:54:27;19.80;99.90
22065;DHT22;11197;53.110;8.468;2023-06-14T06:56:53;19.80;99.90
22065;DHT22;11197;53.110;8.468;2023-06-14T06:59:19;19.80;99.90
22065;DHT22;11197;53.110;8.468;2023-06-14T07:01:44;19.90;99.90
22065;DHT22;11197;53.110;8.468;2023-06-14T07:04:11;19.90;99.90
22065;DHT22;11197;53.110;8.468;2023-06-14T07:06:37;20.00;99.90
22065;DHT22;11197;53.110;8.468;2023-06-14T07:09:03;20.10;99.90
22065;DHT22;11197;53.110;8.468;2023-06-14T07:11:32;20.10;99.90
22065;DHT22;11197;53.110;8.468;2023-06-14T07:13:57;20.20;99.90
22065;DHT22;11197;53.110;8.468;2023-06-14T07:16:23;20.30;99.90
22065;DHT22;11197;53.110;8.468;2023-06-14T07:18:49;20.40;99.90
22065;DHT22;11197;53.110;8.468;2023-06-14T07:21:14;20.40;99.90
22065;DHT22;11197;53.110;8.468;2023-06-14T07:23:40;20.60;99.90
22065;DHT22;11197;53.110;8.468;2023-06-14T07:26:06;20.60;99.90
22065;DHT22;11197;53.110;8.468;2023-06-14T07:28:32;20.70;99.90
22065;DHT22;11197;53.110;8.468;2023-06-14T07:30:57;20.70;99.90
22065;DHT22;11197;53.110;8.468;2023-06-14T07:33:23;20.80;99.90
22065;DHT22;11197;53.110;8.468;2023-06-14T07:35:49;20.80;99.90
22065;DHT22;11197;53.110;8.468;2023-06-14T07:38:15;20.80;99.90
22065;DHT22;11197;53.110;8.468;2023-06-14T07:40:41;20.90;99.90
22065;DHT22;11197;53.110;8.468;2023-06-14T07:43:06;20.90;99.90
22065;DHT22;11197;53.110;8.468;2023-06-14T07:45:32;20.90;99.90
22065;DHT22;11197;53.110;8.468;2023-06-14T07:47:58;20.90;99.90
22065;DHT22;11197;53.110;8.468;2023-06-14T07:50:23;20.90;99.90
22065;DHT22;11197;53.110;8.468;2023-06-14T07:52:49;20.90;99.90
22065;DHT22;11197;53.110;8.468;2023-06-14T07:55:15;20.80;99.90
22065;DHT22;11197;53.110;8.468;2023-06-14T07:57:41;20.80;99.90
22065;DHT22;11197;53.110;8.468;2023-06-14T08:00:08;20.80;99.90
22065;DHT22;11197;53.110;8.468;2023-06-14T08:02:39;20.90;99.90
22065;DHT22;11197;53.110;8.468;2023-06-14T08:05:05;20.90;99.90
22065;DHT22;11197;53.110;8.468;2023-06-14T08:07:31;21.00;99.60
22065;DHT22;11197;53.110;8.468;2023-06-14T08:09:57;20.90;98.20
22065;DHT22;11197;53.110;8.468;2023-06-14T08:12:22;21.00;98.40
22065;DHT22;11197;53.110;8.468;2023-06-14T08:14:48;21.00;97.10
22065;DHT22;11197;53.110;8.468;2023-06-14T08:17:14;21.00;97.10
22065;DHT22;11197;53.110;8.468;2023-06-14T08:19:40;21.00;96.60
22065;DHT22;11197;53.110;8.468;2023-06-14T08:22:06;21.00;96.40
22065;DHT22;11197;53.110;8.468;2023-06-14T08:24:32;21.00;96.10
22065;DHT22;11197;53.110;8.468;2023-06-14T08:26:57;21.00;95.30
22065;DHT22;11197;53.110;8.468;2023-06-14T08:29:26;21.10;95.80
22065;DHT22;11197;53.110;8.468;2023-06-14T08:31:55;21.10;96.10
22065;DHT22;11197;53.110;8.468;2023-06-14T08:34:20;21.10;95.70
22065;DHT22;11197;53.110;8.468;2023-06-14T08:36:46;21.10;95.90
22065;DHT22;11197;53.110;8.468;2023-06-14T08:39:12;21.20;95.70
22065;DHT22;11197;53.110;8.468;2023-06-14T08:41:38;21.20;95.50
22065;DHT22;11197;53.110;8.468;2023-06-14T08:44:04;21.20;95.30
22065;DHT22;11197;53.110;8.468;2023-06-14T08:46:32;21.30;95.40
22065;DHT22;11197;53.110;8.468;2023-06-14T08:48:59;21.30;94.00
22065;DHT22;11197;53.110;8.468;2023-06-14T08:51:27;21.30;93.70
22065;DHT22;11197;53.110;8.468;2023-06-14T08:53:59;21.30;93.80
22065;DHT22;11197;53.110;8.468;2023-06-14T08:56:28;21.40;93.30
22065;DHT22;11197;53.110;8.468;2023-06-14T08:58:55;21.40;93.00
22065;DHT22;11197;53.110;8.468;2023-06-14T09:01:22;21.40;92.90
22065;DHT22;11197;53.110;8.468;2023-06-14T09:03:49;21.40;93.40
22065;DHT22;11197;53.110;8.468;2023-06-14T09:06:16;21.40;93.80
22065;DHT22;11197;53.110;8.468;2023-06-14T09:08:43;21.50;93.10
22065;DHT22;11197;53.110;8.468;2023-06-14T09:11:12;21.50;92.60
22065;DHT22;11197;53.110;8.468;2023-06-14T09:13:40;21.50;92.60
22065;DHT22;11197;53.110;8.468;2023-06-14T09:16:06;21.50;92.60
22065;DHT22;11197;53.110;8.468;2023-06-14T09:18:41;21.50;92.40
22065;DHT22;11197;53.110;8.468;2023-06-14T09:21:09;21.50;92.50
22065;DHT22;11197;53.110;8.468;2023-06-14T09:23:43;21.50;93.20
22065;DHT22;11197;53.110;8.468;2023-06-14T09:26:14;21.60;93.20
22065;DHT22;11197;53.110;8.468;2023-06-14T09:28:43;21.60;92.90
22065;DHT22;11197;53.110;8.468;2023-06-14T09:31:12;21.60;93.10
22065;DHT22;11197;53.110;8.468;2023-06-14T09:33:38;21.70;93.30
22065;DHT22;11197;53.110;8.468;2023-06-14T09:36:10;21.80;92.10
22065;DHT22;11197;53.110;8.468;2023-06-14T09:38:36;21.80;92.50
22065;DHT22;11197;53.110;8.468;2023-06-14T09:41:03;21.70;92.30
22065;DHT22;11197;53.110;8.468;2023-06-14T09:43:29;21.80;91.90
22065;DHT22;11197;53.110;8.468;2023-06-14T09:45:55;21.80;92.10
22065;DHT22;11197;53.110;8.468;2023-06-14T09:48:21;21.80;92.20
22065;DHT22;11197;53.110;8.468;2023-06-14T09:50:48;21.80;91.90
22065;DHT22;11197;53.110;8.468;2023-06-14T09:53:15;21.90;91.60
22065;DHT22;11197;53.110;8.468;2023-06-14T09:55:45;21.90;92.00
22065;DHT22;11197;53.110;8.468;2023-06-14T09:58:12;21.90;92.60
22065;DHT22;11197;53.110;8.468;2023-06-14T10:00:39;22.00;92.50
22065;DHT22;11197;53.110;8.468;2023-06-14T10:03:11;22.00;92.30
22065;DHT22;11197;53.110;8.468;2023-06-14T10:05:41;22.00;91.90
22065;DHT22;11197;53.110;8.468;2023-06-14T10:08:14;22.00;92.00
22065;DHT22;11197;53.110;8.468;2023-06-14T10:10:42;22.10;90.70
22065;DHT22;11197;53.110;8.468;2023-06-14T10:13:09;22.10;90.90
22065;DHT22;11197;53.110;8.468;2023-06-14T10:21:16;22.20;90.10
22065;DHT22;11197;53.110;8.468;2023-06-14T10:23:45;22.30;90.00
22065;DHT22;11197;53.110;8.468;2023-06-14T10:26:22;22.20;90.40
22065;DHT22;11197;53.110;8.468;2023-06-14T10:29:01;22.20;90.00
22065;DHT22;11197;53.110;8.468;2023-06-14T10:31:49;22.20;89.50
22065;DHT22;11197;53.110;8.468;2023-06-14T10:34:26;22.20;90.20
22065;DHT22;11197;53.110;8.468;2023-06-14T10:39:29;22.40;89.40
22065;DHT22;11197;53.110;8.468;2023-06-14T10:41:56;22.40;88.50
22065;DHT22;11197;53.110;8.468;2023-06-14T10:46:49;22.40;88.60
22065;DHT22;11197;53.110;8.468;2023-06-14T10:49:43;22.40;89.30
22065;DHT22;11197;53.110;8.468;2023-06-14T10:52:14;22.50;89.60
22065;DHT22;11197;53.110;8.468;2023-06-14T10:55:12;22.60;89.30
22065;DHT22;11197;53.110;8.468;2023-06-14T10:57:51;22.70;88.10
22065;DHT22;11197;53.110;8.468;2023-06-14T11:00:22;22.70;86.60
22065;DHT22;11197;53.110;8.468;2023-06-14T11:03:31;22.70;87.00
22065;DHT22;11197;53.110;8.468;2023-06-14T11:06:12;22.80;86.40
22065;DHT22;11197;53.110;8.468;2023-06-14T11:09:12;22.90;84.60
22065;DHT22;11197;53.110;8.468;2023-06-14T11:11:46;22.90;84.80
22065;DHT22;11197;53.110;8.468;2023-06-14T11:14:12;22.90;83.90
22065;DHT22;11197;53.110;8.468;2023-06-14T11:16:38;22.90;83.60
22065;DHT22;11197;53.110;8.468;2023-06-14T11:19:04;23.00;83.70
22065;DHT22;11197;53.110;8.468;2023-06-14T11:21:32;23.00;84.40
22065;DHT22;11197;53.110;8.468;2023-06-14T11:23:58;23.00;84.30
22065;DHT22;11197;53.110;8.468;2023-06-14T11:26:26;23.00;83.80
22065;DHT22;11197;53.110;8.468;2023-06-14T11:28:56;23.00;83.70
22065;DHT22;11197;53.110;8.468;2023-06-14T11:31:22;23.10;83.10
22065;DHT22;11197;53.110;8.468;2023-06-14T11:33:54;23.10;82.80
22065;DHT22;11197;53.110;8.468;2023-06-14T11:36:20;23.10;83.70
22065;DHT22;11197;53.110;8.468;2023-06-14T11:38:45;23.30;81.70
22065;DHT22;11197;53.110;8.468;2023-06-14T11:41:11;23.30;81.40
22065;DHT22;11197;53.110;8.468;2023-06-14T11:43:37;23.40;81.40
22065;DHT22;11197;53.110;8.468;2023-06-14T11:46:02;23.50;82.20
22065;DHT22;11197;53.110;8.468;2023-06-14T11:48:42;23.70;80.30
22065;DHT22;11197;53.110;8.468;2023-06-14T11:51:08;23.80;79.40
22065;DHT22;11197;53.110;8.468;2023-06-14T11:53:34;23.80;78.30
22065;DHT22;11197;53.110;8.468;2023-06-14T11:56:00;23.90;78.20
22065;DHT22;11197;53.110;8.468;2023-06-14T11:58:26;23.90;78.70
22065;DHT22;11197;53.110;8.468;2023-06-14T12:00:54;23.90;78.60
22065;DHT22;11197;53.110;8.468;2023-06-14T12:03:24;24.00;78.10
22065;DHT22;11197;53.110;8.468;2023-06-14T12:06:05;24.00;78.00
22065;DHT22;11197;53.110;8.468;2023-06-14T12:08:36;24.10;77.40
22065;DHT22;11197;53.110;8.468;2023-06-14T12:11:12;24.20;76.70
22065;DHT22;11197;53.110;8.468;2023-06-14T12:13:42;24.20;75.60
22065;DHT22;11197;53.110;8.468;2023-06-14T12:16:09;24.20;75.30
22065;DHT22;11197;53.110;8.468;2023-06-14T12:18:36;24.20;76.10
22065;DHT22;11197;53.110;8.468;2023-06-14T12:21:04;24.20;75.60
22065;DHT22;11197;53.110;8.468;2023-06-14T12:23:49;24.20;75.60
22065;DHT22;11197;53.110;8.468;2023-06-14T12:26:19;24.20;73.90
22065;DHT22;11197;53.110;8.468;2023-06-14T12:28:46;24.20;74.70
22065;DHT22;11197;53.110;8.468;2023-06-14T12:31:13;24.20;74.80
22065;DHT22;11197;53.110;8.468;2023-06-14T12:33:40;24.30;73.80
22065;DHT22;11197;53.110;8.468;2023-06-14T12:36:10;24.30;73.80
22065;DHT22;11197;53.110;8.468;2023-06-14T12:38:36;24.30;73.20
22065;DHT22;11197;53.110;8.468;2023-06-14T12:41:02;24.30;73.60
22065;DHT22;11197;53.110;8.468;2023-06-14T12:43:28;24.40;73.20
22065;DHT22;11197;53.110;8.468;2023-06-14T12:45:54;24.40;73.20
22065;DHT22;11197;53.110;8.468;2023-06-14T12:48:20;24.40;73.30
22065;DHT22;11197;53.110;8.468;2023-06-14T12:50:46;24.50;71.70
22065;DHT22;11197;53.110;8.468;2023-06-14T12:53:12;24.60;72.10
22065;DHT22;11197;53.110;8.468;2023-06-14T12:55:38;24.70;71.70
22065;DHT22;11197;53.110;8.468;2023-06-14T12:58:04;24.70;71.10
22065;DHT22;11197;53.110;8.468;2023-06-14T13:00:30;24.80;69.80
22065;DHT22;11197;53.110;8.468;2023-06-14T13:02:58;24.90;69.10
22065;DHT22;11197;53.110;8.468;2023-06-14T13:05:24;24.90;69.10
22065;DHT22;11197;53.110;8.468;2023-06-14T13:07:50;25.00;69.80
22065;DHT22;11197;53.110;8.468;2023-06-14T13:10:17;25.00;69.50
22065;DHT22;11197;53.110;8.468;2023-06-14T13:12:43;25.10;69.80
22065;DHT22;11197;53.110;8.468;2023-06-14T13:15:09;25.00;69.30
22065;DHT22;11197;53.110;8.468;2023-06-14T13:17:35;25.00;69.90
22065;DHT22;11197;53.110;8.468;2023-06-14T13:20:07;25.00;69.80
22065;DHT22;11197;53.110;8.468;2023-06-14T13:22:34;24.90;69.90
22065;DHT22;11197;53.110;8.468;2023-06-14T13:25:00;24.90;70.30
22065;DHT22;11197;53.110;8.468;2023-06-14T13:27:26;24.90;70.30
22065;DHT22;11197;53.110;8.468;2023-06-14T13:29:52;24.90;69.90
22065;DHT22;11197;53.110;8.468;2023-06-14T13:32:20;25.00;69.80
22065;DHT22;11197;53.110;8.468;2023-06-14T13:34:46;25.00;70.20
22065;DHT22;11197;53.110;8.468;2023-06-14T13:37:12;25.10;70.10
22065;DHT22;11197;53.110;8.468;2023-06-14T13:39:38;25.20;70.00
22065;DHT22;11197;53.110;8.468;2023-06-14T13:42:04;25.30;68.50
22065;DHT22;11197;53.110;8.468;2023-06-14T13:44:30;25.30;68.80
22065;DHT22;11197;53.110;8.468;2023-06-14T13:46:55;25.30;69.00
22065;DHT22;11197;53.110;8.468;2023-06-14T13:49:22;25.40;68.40
22065;DHT22;11197;53.110;8.468;2023-06-14T13:51:48;25.40;68.30
22065;DHT22;11197;53.110;8.468;2023-06-14T13:54:14;25.40;67.90
22065;DHT22;11197;53.110;8.468;2023-06-14T13:56:41;25.50;68.40
22065;DHT22;11197;53.110;8.468;2023-06-14T13:59:07;25.50;67.70
22065;DHT22;11197;53.110;8.468;2023-06-14T14:01:32;25.70;68.10
22065;DHT22;11197;53.110;8.468;2023-06-14T14:03:58;25.70;67.40
22065;DHT22;11197;53.110;8.468;2023-06-14T14:06:26;25.80;66.80
22065;DHT22;11197;53.110;8.468;2023-06-14T14:08:52;25.90;66.00
22065;DHT22;11197;53.110;8.468;2023-06-14T14:11:18;25.90;65.80
22065;DHT22;11197;53.110;8.468;2023-06-14T14:13:44;25.90;66.10
22065;DHT22;11197;53.110;8.468;2023-06-14T14:16:10;25.90;66.40
22065;DHT22;11197;53.110;8.468;2023-06-14T14:18:36;25.90;65.80
22065;DHT22;11197;53.110;8.468;2023-06-14T14:21:02;25.90;64.50
22065;DHT22;11197;53.110;8.468;2023-06-14T14:23:28;25.90;64.20
22065;DHT22;11197;53.110;8.468;2023-06-14T14:25:54;25.90;64.30
22065;DHT22;11197;53.110;8.468;2023-06-14T14:28:20;25.90;63.80
22065;DHT22;11197;53.110;8.468;2023-06-14T14:30:46;25.90;64.20
22065;DHT22;11197;53.110;8.468;2023-06-14T14:33:13;25.90;64.90
22065;DHT22;11197;53.110;8.468;2023-06-14T14:35:47;25.90;65.10
22065;DHT22;11197;53.110;8.468;2023-06-14T14:38:16;25.90;65.30
22065;DHT22;11197;53.110;8.468;2023-06-14T14:40:42;25.90;64.50
22065;DHT22;11197;53.110;8.468;2023-06-14T14:43:09;25.90;64.80
22065;DHT22;11197;53.110;8.468;2023-06-14T14:45:36;25.90;65.00
22065;DHT22;11197;53.110;8.468;2023-06-14T14:48:02;25.90;65.00
22065;DHT22;11197;53.110;8.468;2023-06-14T14:50:28;25.90;65.60
22065;DHT22;11197;53.110;8.468;2023-06-14T14:52:54;25.90;65.90
22065;DHT22;11197;53.110;8.468;2023-06-14T14:55:20;25.90;65.40
22065;DHT22;11197;53.110;8.468;2023-06-14T14:57:46;26.00;65.70
22065;DHT22;11197;53.110;8.468;2023-06-14T15:00:13;26.00;66.30
22065;DHT22;11197;53.110;8.468;2023-06-14T15:02:39;26.10;66.60
22065;DHT22;11197;53.110;8.468;2023-06-14T15:05:05;26.10;65.50
22065;DHT22;11197;53.110;8.468;2023-06-14T15:07:31;26.10;65.60
22065;DHT22;11197;53.110;8.468;2023-06-14T15:09:59;26.10;65.80
22065;DHT22;11197;53.110;8.468;2023-06-14T15:12:25;26.10;65.70
22065;DHT22;11197;53.110;8.468;2023-06-14T15:14:51;26.10;65.50
22065;DHT22;11197;53.110;8.468;2023-06-14T15:17:20;26.10;65.30
22065;DHT22;11197;53.110;8.468;2023-06-14T15:19:47;26.10;65.50
22065;DHT22;11197;53.110;8.468;2023-06-14T15:22:13;26.10;64.90
22065;DHT22;11197;53.110;8.468;2023-06-14T15:24:41;26.10;64.90
22065;DHT22;11197;53.110;8.468;2023-06-14T15:27:06;26.10;64.70
22065;DHT22;11197;53.110;8.468;2023-06-14T15:29:33;26.10;64.30
22065;DHT22;11197;53.110;8.468;2023-06-14T15:32:01;26.00;64.30
22065;DHT22;11197;53.110;8.468;2023-06-14T15:34:26;26.00;64.60
22065;DHT22;11197;53.110;8.468;2023-06-14T15:36:52;25.90;64.40
22065;DHT22;11197;53.110;8.468;2023-06-14T15:39:17;26.00;64.00
22065;DHT22;11197;53.110;8.468;2023-06-14T15:41:43;25.90;64.40
22065;DHT22;11197;53.110;8.468;2023-06-14T15:44:09;26.00;64.30